sensor_id;sensor_type;location;lat;lon;timestamp;P1;durP1;ratioP1;P2;durP2;ratioP2
51485;SDS011;37565;51.352;6.412;2023-04-25T19:45:45;5.22;;;1.08;;
51485;SDS011;37565;51.352;6.412;2023-04-25T19:48:13;2.20;;;1.00;;
51485;SDS011;37565;51.352;6.412;2023-04-25T19:50:42;4.82;;;0.95;;
51485;SDS011;37565;51.352;6.412;2023-04-25T19:53:10;1.45;;;0.90;;
51485;SDS011;37565;51.352;6.412;2023-04-25T19:55:38;1.30;;;0.85;;
51485;SDS011;37565;51.352;6.412;2023-04-25T19:58:06;2.97;;;1.00;;
51485;SDS011;37565;51.352;6.412;2023-04-25T20:00:34;3.25;;;0.90;;
51485;SDS011;37565;51.352;6.412;2023-04-25T20:03:03;2.00;;;0.52;;
51485;SDS011;37565;51.352;6.412;2023-04-25T20:05:31;1.13;;;0.70;;
51485;SDS011;37565;51.352;6.412;2023-04-25T20:07:59;0.32;;;0.32;;
51485;SDS011;37565;51.352;6.412;2023-04-25T20:10:28;1.00;;;0.50;;
51485;SDS011;37565;51.352;6.412;2023-04-25T20:12:56;2.45;;;1.00;;
51485;SDS011;37565;51.352;6.412;2023-04-25T20:15:24;3.45;;;0.60;;
51485;SDS011;37565;51.352;6.412;2023-04-25T20:17:52;1.08;;;0.50;;
51485;SDS011;37565;51.352;6.412;2023-04-25T20:20:22;1.70;;;0.40;;
51485;SDS011;37565;51.352;6.412;2023-04-25T20:22:50;4.72;;;0.43;;
51485;SDS011;37565;51.352;6.412;2023-04-25T20:25:19;1.27;;;0.50;;
51485;SDS011;37565;51.352;6.412;2023-04-25T20:27:47;1.27;;;0.50;;
51485;SDS011;37565;51.352;6.412;2023-04-25T20:30:15;3.78;;;0.40;;
51485;SDS011;37565;51.352;6.412;2023-04-25T20:32:43;0.93;;;0.30;;
51485;SDS011;37565;51.352;6.412;2023-04-25T20:35:11;1.10;;;0.35;;
51485;SDS011;37565;51.352;6.412;2023-04-25T20:37:41;1.38;;;0.40;;
51485;SDS011;37565;51.352;6.412;2023-04-25T20:40:09;2.50;;;0.40;;
51485;SDS011;37565;51.352;6.412;2023-04-25T20:42:43;0.93;;;0.45;;
51485;SDS011;37565;51.352;6.412;2023-04-25T20:45:12;2.17;;;0.30;;
51485;SDS011;37565;51.352;6.412;2023-04-25T20:47:41;0.68;;;0.22;;
51485;SDS011;37565;51.352;6.412;2023-04-25T20:50:09;1.60;;;0.38;;
51485;SDS011;37565;51.352;6.412;2023-04-25T20:52:37;1.75;;;0.38;;
51485;SDS011;37565;51.352;6.412;2023-04-25T20:55:08;1.60;;;0.40;;
51485;SDS011;37565;51.352;6.412;2023-04-25T20:57:37;0.60;;;0.28;;
51485;SDS011;37565;51.352;6.412;2023-04-25T21:00:05;0.52;;;0.30;;
51485;SDS011;37565;51.352;6.412;2023-04-25T21:02:43;2.15;;;0.30;;
51485;SDS011;37565;51.352;6.412;2023-04-25T21:05:12;3.40;;;0.90;;
51485;SDS011;37565;51.352;6.412;2023-04-25T21:07:40;0.32;;;0.22;;
51485;SDS011;37565;51.352;6.412;2023-04-25T21:10:09;2.28;;;0.30;;
51485;SDS011;37565;51.352;6.412;2023-04-25T21:12:38;1.30;;;0.38;;
51485;SDS011;37565;51.352;6.412;2023-04-25T21:15:06;1.55;;;0.43;;
51485;SDS011;37565;51.352;6.412;2023-04-25T21:17:35;0.43;;;0.30;;
51485;SDS011;37565;51.352;6.412;2023-04-25T21:20:03;0.30;;;0.20;;
51485;SDS011;37565;51.352;6.412;2023-04-25T21:22:35;2.22;;;0.40;;
51485;SDS011;37565;51.352;6.412;2023-04-25T21:25:11;0.75;;;0.22;;
51485;SDS011;37565;51.352;6.412;2023-04-25T21:27:40;0.50;;;0.43;;
51485;SDS011;37565;51.352;6.412;2023-04-25T21:30:08;1.05;;;0.20;;
51485;SDS011;37565;51.352;6.412;2023-04-25T21:32:36;0.85;;;0.57;;
51485;SDS011;37565;51.352;6.412;2023-04-25T21:35:05;0.80;;;0.30;;
51485;SDS011;37565;51.352;6.412;2023-04-25T21:37:33;9.98;;;0.35;;
51485;SDS011;37565;51.352;6.412;2023-04-25T21:40:01;1.75;;;0.30;;
51485;SDS011;37565;51.352;6.412;2023-04-25T21:42:32;0.35;;;0.22;;
51485;SDS011;37565;51.352;6.412;2023-04-25T21:45:00;0.40;;;0.38;;
51485;SDS011;37565;51.352;6.412;2023-04-25T21:47:28;0.32;;;0.32;;
51485;SDS011;37565;51.352;6.412;2023-04-25T21:49:57;0.60;;;0.30;;
51485;SDS011;37565;51.352;6.412;2023-04-25T21:52:25;1.80;;;0.38;;
51485;SDS011;37565;51.352;6.412;2023-04-25T21:54:53;0.20;;;0.20;;
51485;SDS011;37565;51.352;6.412;2023-04-25T21:57:21;2.63;;;0.30;;
51485;SDS011;37565;51.352;6.412;2023-04-25T21:59:51;0.65;;;0.30;;
